Time;durP1;ratioP1;P1;durP2;ratioP2;P2;SDS_P1;SDS_P2;PMS_P1;PMS_P2;Temp;Humidity;BMP_temperature;BMP_pressure;BME280_temperature;BME280_humidity;BME280_pressure;Samples;Min_cycle;Max_cycle;Signal;HPM_P1;HPM_P2
2021/10/14 00:00:20;;;;;;;52.83;49.00;;;;;;;11.36;100.00;102833.30;1940665;74;33060;-70
2021/10/14 00:05:44;;;;;;;51.73;48.03;;;;;;;11.07;100.00;102829.23;1940603;74;33171;-70
2021/10/14 00:11:09;;;;;;;52.63;49.20;;;;;;;10.75;100.00;102830.06;1940603;74;33525;-70
2021/10/14 00:16:35;;;;;;;53.57;50.10;;;;;;;10.45;100.00;102825.94;1940560;74;32962;-70
2021/10/14 00:22:20;;;;;;;51.50;48.10;;;;;;;10.32;100.00;102825.59;2009541;71;33300;-71
2021/10/14 00:27:44;;;;;;;51.03;47.53;;;;;;;10.39;100.00;102819.95;1940602;74;32974;-70
2021/10/14 00:33:08;;;;;;;49.90;46.50;;;;;;;10.34;100.00;102818.42;1940568;74;33057;-70
2021/10/14 00:38:33;;;;;;;49.77;46.33;;;;;;;10.36;100.00;102819.02;1940699;74;33460;-70
2021/10/14 00:43:57;;;;;;;52.13;48.73;;;;;;;10.57;100.00;102814.88;1940732;74;33520;-69
2021/10/14 00:49:23;;;;;;;51.47;48.07;;;;;;;10.66;100.00;102818.98;1940646;74;33641;-70
2021/10/14 00:55:09;;;;;;;50.63;46.97;;;;;;;10.75;100.00;102817.02;2009332;71;33376;-70
2021/10/14 01:00:34;;;;;;;51.23;47.80;;;;;;;10.93;100.00;102813.31;1940705;74;33490;-70
2021/10/14 01:05:59;;;;;;;52.37;48.57;;;;;;;11.07;100.00;102816.72;1940718;74;33442;-70
2021/10/14 01:11:25;;;;;;;50.00;46.60;;;;;;;11.11;100.00;102806.26;1940492;74;33059;-71
2021/10/14 01:16:50;;;;;;;48.07;44.97;;;;;;;11.02;100.00;102811.88;1940527;74;32987;-71
2021/10/14 01:22:15;;;;;;;48.83;45.73;;;;;;;10.99;100.00;102807.34;1940690;74;33476;-70
2021/10/14 01:27:39;;;;;;;47.00;43.90;;;;;;;11.10;100.00;102792.58;1940562;74;33065;-71
2021/10/14 01:33:06;;;;;;;47.97;44.77;;;;;;;11.35;100.00;102793.17;1940638;74;32991;-71
2021/10/14 01:38:31;;;;;;;49.60;46.30;;;;;;;11.52;100.00;102794.12;1940511;74;32978;-70
2021/10/14 01:43:55;;;;;;;47.80;44.63;;;;;;;11.73;100.00;102794.05;1940646;74;33079;-69
2021/10/14 01:49:19;;;;;;;47.60;44.40;;;;;;;11.70;100.00;102783.39;1940671;74;33448;-70
2021/10/14 01:54:44;;;;;;;47.40;44.30;;;;;;;11.79;100.00;102778.63;1940537;74;32959;-69
2021/10/14 02:00:15;;;;;;;46.63;43.47;;;;;;;11.75;100.00;102781.59;1940630;74;33050;-71
2021/10/14 02:05:40;;;;;;;44.77;41.57;;;;;;;11.72;100.00;102777.08;1940517;74;33041;-71
2021/10/14 02:11:04;;;;;;;45.23;42.33;;;;;;;11.73;100.00;102769.00;1940589;74;33045;-70
2021/10/14 02:16:29;;;;;;;46.57;43.47;;;;;;;11.81;100.00;102764.43;1940937;74;33575;-70
2021/10/14 02:21:53;;;;;;;50.23;46.63;;;;;;;11.96;100.00;102764.76;1940666;74;33069;-70
2021/10/14 02:27:17;;;;;;;50.00;46.30;;;;;;;12.34;100.00;102758.52;1940735;74;33085;-70
2021/10/14 02:32:42;;;;;;;52.93;48.90;;;;;;;12.37;100.00;102758.02;1940920;74;33461;-70
2021/10/14 02:38:07;;;;;;;49.60;46.00;;;;;;;12.46;100.00;102756.51;1940824;74;32971;-70
2021/10/14 02:43:32;;;;;;;44.80;41.70;;;;;;;12.45;100.00;102755.39;1940739;74;32986;-71
2021/10/14 02:48:56;;;;;;;47.03;43.73;;;;;;;12.21;100.00;102747.69;1940774;74;33126;-71
2021/10/14 02:54:20;;;;;;;47.87;44.47;;;;;;;12.30;100.00;102750.37;1940889;74;33449;-70
2021/10/14 02:59:45;;;;;;;46.97;43.53;;;;;;;12.26;100.00;102754.21;1940919;74;33536;-71
2021/10/14 03:05:10;;;;;;;44.47;41.23;;;;;;;12.24;100.00;102750.81;1940923;74;33084;-70
2021/10/14 03:10:34;;;;;;;47.83;44.43;;;;;;;12.31;100.00;102741.77;1940708;74;33064;-71
2021/10/14 03:16:04;;;;;;;48.13;44.43;;;;;;;12.60;100.00;102748.13;1940894;74;33130;-70
2021/10/14 03:21:28;;;;;;;49.50;45.70;;;;;;;12.74;100.00;102751.44;1940724;74;33168;-71
2021/10/14 03:26:52;;;;;;;46.73;43.40;;;;;;;12.61;100.00;102747.03;1940932;74;33589;-71
2021/10/14 03:32:16;;;;;;;51.37;47.50;;;;;;;12.58;100.00;102740.55;1940953;74;33478;-71
2021/10/14 03:37:41;;;;;;;51.23;47.20;;;;;;;12.75;100.00;102740.55;1940798;74;32973;-70
2021/10/14 03:43:06;;;;;;;51.67;47.57;;;;;;;12.87;100.00;102736.30;1940682;74;33171;-71
2021/10/14 03:48:31;;;;;;;48.33;44.60;;;;;;;12.77;100.00;102739.76;1940747;74;33092;-71
2021/10/14 03:53:55;;;;;;;50.47;46.57;;;;;;;12.72;100.00;102732.16;1940929;74;33515;-71
2021/10/14 03:59:20;;;;;;;51.20;47.27;;;;;;;12.78;100.00;102738.13;1940773;74;33079;-70
2021/10/14 04:04:44;;;;;;;46.77;43.37;;;;;;;12.68;100.00;102737.95;1940946;74;33562;-70
2021/10/14 04:10:11;;;;;;;50.17;46.67;;;;;;;12.49;100.00;102740.70;1940731;74;33109;-70
2021/10/14 04:15:36;;;;;;;47.40;43.90;;;;;;;12.50;100.00;102737.33;1940946;74;33560;-71
2021/10/14 04:21:07;;;;;;;46.43;43.13;;;;;;;12.50;100.00;102734.00;1940900;74;33503;-71
2021/10/14 04:26:31;;;;;;;49.73;46.03;;;;;;;12.41;100.00;102729.94;1940716;74;32990;-71
2021/10/14 04:31:56;;;;;;;50.10;46.43;;;;;;;12.56;100.00;102721.85;1940962;74;33469;-71
2021/10/14 04:37:21;;;;;;;49.13;45.63;;;;;;;12.63;100.00;102727.25;1940730;74;33142;-70
2021/10/14 04:42:45;;;;;;;47.90;44.20;;;;;;;12.45;100.00;102718.58;1940940;74;32985;-68
2021/10/14 04:48:09;;;;;;;47.37;43.97;;;;;;;12.38;100.00;102709.55;1940976;74;33507;-70
2021/10/14 04:53:34;;;;;;;50.23;46.47;;;;;;;12.49;100.00;102714.22;1940897;74;33575;-71
2021/10/14 04:58:58;;;;;;;50.70;46.70;;;;;;;12.81;100.00;102710.27;1940720;74;33039;-70
2021/10/14 05:04:23;;;;;;;50.80;46.70;;;;;;;12.84;100.00;102706.11;1940926;74;33553;-70
2021/10/14 05:09:47;;;;;;;52.27;48.17;;;;;;;12.92;100.00;102705.70;1941104;74;33457;-71
2021/10/14 05:15:13;;;;;;;52.67;48.60;;;;;;;12.92;100.00;102711.28;1940958;74;33585;-71
2021/10/14 05:20:38;;;;;;;52.77;48.67;;;;;;;12.85;100.00;102707.80;1940793;74;32984;-70
2021/10/14 05:26:01;;;;;;;52.53;48.30;;;;;;;12.87;100.00;102712.05;1940845;74;32981;-71
2021/10/14 05:31:27;;;;;;;52.90;48.63;;;;;;;12.91;100.00;102715.16;1940775;74;33166;-70
2021/10/14 05:36:52;;;;;;;52.43;48.40;;;;;;;13.05;100.00;102716.50;1940712;74;32976;-70
2021/10/14 05:42:16;;;;;;;53.50;49.30;;;;;;;13.10;100.00;102709.06;1940960;74;33456;-70
2021/10/14 05:47:40;;;;;;;52.97;48.87;;;;;;;13.12;100.00;102707.42;1940762;74;33165;-71
2021/10/14 05:53:05;;;;;;;53.33;49.10;;;;;;;13.13;100.00;102711.91;1940975;74;33524;-70
2021/10/14 05:58:29;;;;;;;55.53;51.33;;;;;;;13.11;100.00;102698.20;1940873;74;33036;-70
2021/10/14 06:03:55;;;;;;;52.97;48.73;;;;;;;13.09;100.00;102699.55;1940908;74;32958;-70
2021/10/14 06:09:20;;;;;;;52.63;48.43;;;;;;;13.11;100.00;102693.17;1940890;74;32976;-71
2021/10/14 06:14:44;;;;;;;54.03;49.73;;;;;;;12.90;100.00;102693.39;1941049;74;33452;-70
2021/10/14 06:20:11;;;;;;;52.53;48.43;;;;;;;12.95;100.00;102694.87;1940712;74;33049;-70
2021/10/14 06:25:37;;;;;;;51.80;47.90;;;;;;;12.89;100.00;102693.09;1941025;74;32969;-70
2021/10/14 06:31:02;;;;;;;54.90;50.70;;;;;;;12.94;100.00;102693.17;1940806;74;33021;-71
2021/10/14 06:36:26;;;;;;;52.80;48.70;;;;;;;12.93;100.00;102687.29;1940854;74;33147;-71
2021/10/14 06:41:50;;;;;;;52.93;48.83;;;;;;;12.79;100.00;102688.19;1940768;74;32977;-71
2021/10/14 06:47:15;;;;;;;52.40;48.30;;;;;;;12.85;100.00;102684.94;1941032;74;33560;-71
2021/10/14 06:52:39;;;;;;;54.23;50.03;;;;;;;12.86;100.00;102687.19;1940939;74;33038;-72
2021/10/14 06:58:04;;;;;;;54.67;50.23;;;;;;;13.00;100.00;102678.76;1940937;74;33060;-72
2021/10/14 07:03:29;;;;;;;54.57;50.37;;;;;;;13.13;100.00;102672.30;1940764;74;33398;-72
2021/10/14 07:08:53;;;;;;;55.60;51.07;;;;;;;13.30;100.00;102669.45;1940887;74;32996;-72
2021/10/14 07:14:17;;;;;;;56.07;51.30;;;;;;;13.44;100.00;102669.33;1940950;74;32975;-74
2021/10/14 07:19:42;;;;;;;53.57;49.37;;;;;;;13.54;100.00;102669.47;1941005;74;33451;-73
2021/10/14 07:25:08;;;;;;;53.40;49.00;;;;;;;13.67;100.00;102666.81;1940852;74;32965;-72
2021/10/14 07:30:32;;;;;;;55.17;50.77;;;;;;;13.71;100.00;102668.53;1941114;74;33544;-71
2021/10/14 07:35:57;;;;;;;56.57;51.97;;;;;;;13.81;100.00;102662.52;1940952;74;33049;-72
2021/10/14 07:41:21;;;;;;;53.17;49.03;;;;;;;13.82;100.00;102663.36;1940724;74;33075;-71
2021/10/14 07:46:49;;;;;;;54.70;50.40;;;;;;;13.86;100.00;102663.94;1940817;74;32971;-70
2021/10/14 07:52:14;;;;;;;53.07;49.07;;;;;;;13.93;100.00;102659.01;1940902;74;32975;-70
2021/10/14 07:57:38;;;;;;;52.60;48.40;;;;;;;13.99;100.00;102669.69;1940691;74;33054;-74
2021/10/14 08:03:04;;;;;;;54.07;49.77;;;;;;;13.98;100.00;102673.59;1940762;74;33511;-70
2021/10/14 08:08:29;;;;;;;54.83;50.63;;;;;;;14.03;100.00;102673.06;1940799;74;32965;-70
2021/10/14 08:13:53;;;;;;;54.20;50.10;;;;;;;14.13;100.00;102670.37;1940876;74;32971;-72
2021/10/14 08:19:18;;;;;;;56.93;52.70;;;;;;;14.40;100.00;102669.53;1940762;74;32955;-71
2021/10/14 08:24:42;;;;;;;59.13;54.80;;;;;;;14.51;100.00;102662.91;1940764;74;32975;-73
2021/10/14 08:30:11;;;;;;;55.80;51.70;;;;;;;14.57;100.00;102658.50;1940809;74;32970;-72
2021/10/14 08:35:38;;;;;;;54.77;50.83;;;;;;;14.80;100.00;102662.02;1940795;74;32988;-69
2021/10/14 08:41:03;;;;;;;53.13;49.13;;;;;;;14.84;100.00;102667.36;1940920;74;33563;-72
2021/10/14 08:46:29;;;;;;;55.00;50.90;;;;;;;14.96;100.00;102663.25;1940945;74;33050;-74
2021/10/14 08:51:55;;;;;;;51.00;47.30;;;;;;;15.18;100.00;102656.64;1940929;74;33490;-72
2021/10/14 08:57:19;;;;;;;51.83;48.33;;;;;;;15.18;100.00;102656.09;1940995;74;31529;-74
2021/10/14 09:02:43;;;;;;;48.70;45.23;;;;;;;15.35;100.00;102651.13;1940964;74;33626;-72
2021/10/14 09:08:12;;;;;;;47.07;44.07;;;;;;;15.28;100.00;102643.52;1940876;74;33031;-73
2021/10/14 09:13:38;;;;;;;45.40;42.43;;;;;;;15.27;100.00;102637.66;1940912;74;33159;-72
2021/10/14 09:19:22;;;;;;;42.00;39.30;;;;;;;15.40;100.00;102627.91;1941022;74;33472;-72
2021/10/14 09:24:47;;;;;;;41.60;39.00;;;;;;;15.48;100.00;102618.42;1940761;74;33156;-71
2021/10/14 09:30:20;;;;;;;41.33;38.73;;;;;;;15.53;100.00;102609.77;1940768;74;33032;-71
2021/10/14 09:35:44;;;;;;;47.07;44.37;;;;;;;15.65;100.00;102600.00;1940777;74;31158;-74
2021/10/14 09:41:15;;;;;;;37.60;35.30;;;;;;;15.68;100.00;102590.19;1940903;74;32974;-70
2021/10/14 09:46:42;;;;;;;39.80;37.27;;;;;;;15.81;100.00;102572.84;1940774;74;33124;-74
2021/10/14 10:52:33;;;;;;;31.60;29.90;;;;;;;16.53;100.00;102484.16;1860019;76;24591;-69
2021/10/14 10:58:07;;;;;;;29.93;28.40;;;;;;;16.75;100.00;102458.56;1940870;74;31033;-71
2021/10/14 11:03:33;;;;;;;30.13;28.33;;;;;;;16.94;100.00;102454.55;1940659;74;31154;-69
2021/10/14 11:09:05;;;;;;;28.77;27.27;;;;;;;17.07;100.00;102451.92;1940657;74;31082;-69
2021/10/14 11:14:50;;;;;;;29.07;27.53;;;;;;;17.28;100.00;102444.23;2014737;71;33446;-70
2021/10/14 11:20:17;;;;;;;26.17;24.87;;;;;;;17.44;100.00;102437.92;1940732;74;31107;-70
2021/10/14 11:25:43;;;;;;;25.87;24.57;;;;;;;17.58;100.00;102426.33;1940652;74;31045;-69
2021/10/14 11:31:08;;;;;;;24.80;23.60;;;;;;;17.49;100.00;102416.25;1940709;74;31117;-70
2021/10/14 11:36:33;;;;;;;24.87;23.67;;;;;;;17.71;100.00;102408.19;1940744;74;31088;-69
2021/10/14 11:42:01;;;;;;;23.70;22.50;;;;;;;17.95;100.00;102402.63;1940854;74;31112;-70
2021/10/14 11:47:27;;;;;;;22.90;21.80;;;;;;;17.93;100.00;102404.89;1972085;72;30986;-69
2021/10/14 11:53:03;;;;;;;22.37;21.17;;;;;;;18.15;100.00;102387.48;1940853;74;31054;-72
2021/10/14 11:58:29;;;;;;;23.93;22.63;;;;;;;18.25;100.00;102385.98;1940675;74;31043;-70
2021/10/14 12:03:56;;;;;;;22.90;21.70;;;;;;;18.37;100.00;102372.87;1940829;74;31147;-70
2021/10/14 12:09:42;;;;;;;23.03;21.93;;;;;;;18.15;100.00;102383.27;2009486;71;30898;-72
2021/10/14 12:15:10;;;;;;;22.53;21.53;;;;;;;17.96;100.00;102369.73;1940803;74;31057;-69
2021/10/14 12:20:35;;;;;;;23.10;21.90;;;;;;;17.81;100.00;102364.25;1940760;74;31116;-69
2021/10/14 12:26:14;;;;;;;24.20;23.10;;;;;;;17.95;100.00;102356.23;1940931;74;31635;-71
2021/10/14 12:31:38;;;;;;;23.63;22.53;;;;;;;17.80;100.00;102349.36;1940829;74;31531;-75
2021/10/14 12:37:08;;;;;;;23.07;22.07;;;;;;;17.67;100.00;102342.47;1940785;74;31047;-70
2021/10/14 12:42:47;;;;;;;23.37;22.27;;;;;;;17.61;100.00;102336.64;1940813;74;33551;-71
2021/10/14 12:48:20;;;;;;;24.27;23.07;;;;;;;17.49;100.00;102331.13;1940777;74;31645;-70
2021/10/14 12:53:48;;;;;;;25.50;24.20;;;;;;;17.44;100.00;102319.36;1941084;74;31115;-74
2021/10/14 12:59:16;;;;;;;26.43;25.03;;;;;;;17.42;100.00;102310.94;1940767;74;31040;-71
2021/10/14 13:04:45;;;;;;;27.23;25.83;;;;;;;17.27;100.00;102302.95;1940876;74;31665;-71
2021/10/14 13:10:29;;;;;;;28.07;26.47;;;;;;;17.22;100.00;102299.34;2009663;71;30958;-70
2021/10/14 13:15:53;;;;;;;26.00;24.70;;;;;;;17.49;100.00;102291.78;1940758;74;31048;-71
2021/10/14 13:21:18;;;;;;;25.87;24.57;;;;;;;17.42;100.00;102281.44;1940616;74;33183;-70
2021/10/14 13:26:42;;;;;;;32.17;30.57;;;;;;;17.61;100.00;102272.58;1940645;74;31187;-71
2021/10/14 13:32:11;;;;;;;25.20;23.93;;;;;;;17.97;100.00;102257.53;1941088;74;31588;-70
2021/10/14 13:37:35;;;;;;;24.50;23.20;;;;;;;17.89;100.00;102251.98;1940696;74;31110;-71
2021/10/14 13:43:08;;;;;;;24.60;23.40;;;;;;;17.85;100.00;102245.30;1940887;74;33490;-77
2021/10/14 13:48:27;;;;;;;23.73;22.53;;;;;;;18.02;100.00;102240.57;1940901;74;33439;-69
2021/10/14 13:53:52;;;;;;;23.53;22.43;;;;;;;18.13;100.00;102234.53;1940851;74;31288;-70
2021/10/14 13:59:17;;;;;;;23.07;21.97;;;;;;;18.28;100.00;102217.14;1940626;74;31120;-71
2021/10/14 14:04:41;;;;;;;22.40;21.40;;;;;;;18.39;100.00;102222.34;1940729;74;31045;-71
2021/10/14 14:10:08;;;;;;;22.23;21.23;;;;;;;18.33;100.00;102215.10;1940674;74;31189;-71
2021/10/14 14:15:34;;;;;;;21.57;20.47;;;;;;;18.30;100.00;102210.66;1941070;74;31101;-68
2021/10/14 14:21:01;;;;;;;22.23;21.03;;;;;;;18.19;100.00;102203.77;1940847;74;31676;-70
2021/10/14 14:26:24;;;;;;;22.50;21.40;;;;;;;17.99;100.00;102198.44;1940844;74;31043;-70
2021/10/14 14:31:49;;;;;;;23.27;22.07;;;;;;;17.91;100.00;102200.52;1940860;74;33506;-70
2021/10/14 14:37:13;;;;;;;24.77;23.57;;;;;;;17.85;100.00;102196.09;1940855;74;31124;-73
2021/10/14 14:42:44;;;;;;;22.97;21.87;;;;;;;17.86;100.00;102180.06;1941031;74;31543;-71
2021/10/14 14:48:08;;;;;;;23.50;22.20;;;;;;;17.91;100.00;102172.41;1940681;74;31103;-71
2021/10/14 14:53:42;;;;;;;23.00;21.90;;;;;;;18.05;100.00;102158.44;1941100;74;31496;-70
2021/10/14 14:59:06;;;;;;;22.20;21.20;;;;;;;18.02;100.00;102152.84;1940694;74;31085;-70
2021/10/14 15:04:32;;;;;;;22.03;21.03;;;;;;;18.04;100.00;102152.55;1940699;74;31207;-70
2021/10/14 15:09:56;;;;;;;21.60;20.60;;;;;;;18.31;100.00;102146.23;1940828;74;31532;-70
2021/10/14 15:15:21;;;;;;;22.93;21.67;;;;;;;18.27;100.00;102137.53;1977454;72;33039;-71
2021/10/14 15:20:45;;;;;;;22.37;21.27;;;;;;;18.32;100.00;102143.66;1940964;74;31572;-69
2021/10/14 15:26:10;;;;;;;22.27;21.27;;;;;;;18.34;100.00;102144.20;1940800;74;33501;-70
2021/10/14 15:31:35;;;;;;;22.77;21.57;;;;;;;18.14;100.00;102141.16;1940673;74;33277;-70
2021/10/14 15:37:00;;;;;;;22.70;21.40;;;;;;;18.03;100.00;102143.27;1940709;74;31535;-72
2021/10/14 15:42:26;;;;;;;21.70;20.70;;;;;;;17.87;100.00;102141.83;1940807;74;33471;-70
2021/10/14 15:47:50;;;;;;;23.33;22.20;;;;;;;17.81;100.00;102134.59;1940753;74;31056;-69
2021/10/14 15:53:18;;;;;;;24.33;23.07;;;;;;;17.70;100.00;102131.67;1940775;74;31067;-69
2021/10/14 15:58:45;;;;;;;23.67;22.47;;;;;;;17.60;100.00;102128.42;1940790;74;31057;-70
2021/10/14 16:04:10;;;;;;;23.93;22.83;;;;;;;17.62;100.00;102119.13;1940801;74;33509;-71
2021/10/14 16:09:35;;;;;;;22.60;21.50;;;;;;;17.58;100.00;102117.23;1940674;74;31049;-70
2021/10/14 16:14:59;;;;;;;24.47;23.17;;;;;;;17.45;100.00;102110.91;1940632;74;31064;-68
2021/10/14 16:20:24;;;;;;;25.37;23.97;;;;;;;17.26;100.00;102107.48;1940861;74;31649;-74
2021/10/14 16:25:49;;;;;;;26.50;24.90;;;;;;;17.17;100.00;102111.24;1940971;74;31511;-69
2021/10/14 16:31:18;;;;;;;26.60;25.20;;;;;;;17.09;100.00;102112.73;1940730;74;31039;-72
2021/10/14 16:36:42;;;;;;;27.10;25.60;;;;;;;17.12;100.00;102106.52;1941043;74;31583;-70
2021/10/14 16:42:07;;;;;;;27.07;25.63;;;;;;;17.14;100.00;102102.86;1940792;74;31113;-72
2021/10/14 16:47:35;;;;;;;27.13;25.73;;;;;;;17.02;100.00;102107.22;1940899;74;33830;-73
2021/10/14 16:52:57;;;;;;;27.83;26.43;;;;;;;16.95;100.00;102109.52;1941039;74;31512;-72
2021/10/14 16:58:22;;;;;;;28.10;26.70;;;;;;;16.80;100.00;102106.33;1940831;74;33053;-73
2021/10/14 17:03:48;;;;;;;30.60;28.80;;;;;;;16.75;100.00;102104.98;1919800;71;94208;-77
2021/10/14 17:09:13;;;;;;;29.60;28.10;;;;;;;16.68;100.00;102105.90;1941093;74;31535;-73
2021/10/14 17:14:39;;;;;;;30.50;28.80;;;;;;;16.63;100.00;102098.37;1941259;74;33521;-73
2021/10/14 17:20:10;;;;;;;31.87;30.17;;;;;;;16.55;100.00;102099.55;1941251;74;31609;-73
2021/10/14 17:42:55;;;;;;;36.00;34.00;;;;;;;16.12;100.00;102106.36;1941212;74;31542;-74
2021/10/14 17:48:20;;;;;;;34.67;32.63;;;;;;;16.17;100.00;102092.88;1941162;74;31584;-73
2021/10/14 17:53:45;;;;;;;35.17;33.17;;;;;;;16.15;100.00;102095.11;1941070;74;31094;-72
2021/10/14 17:59:09;;;;;;;36.57;34.17;;;;;;;16.15;100.00;102091.75;1941091;74;31150;-75
2021/10/14 18:04:46;;;;;;;34.63;32.70;;;;;;;16.22;100.00;102087.19;1941158;74;31026;-76
2021/10/14 18:10:20;;;;;;;35.07;33.07;;;;;;;16.20;100.00;102077.70;1940854;74;31051;-75
2021/10/14 18:38:38;;;;;;;36.93;34.73;;;;;;;15.82;100.00;102062.58;1941182;74;31195;-77
2021/10/14 18:44:06;;;;;;;38.60;36.47;;;;;;;15.70;100.00;102051.46;1941030;74;31024;-76
2021/10/14 18:49:51;;;;;;;37.93;35.83;;;;;;;15.73;100.00;102042.47;2010085;71;32849;-74
2021/10/14 18:55:17;;;;;;;37.63;35.57;;;;;;;15.71;100.00;102055.91;1941305;74;31055;-71
2021/10/14 19:00:52;;;;;;;37.53;35.33;;;;;;;15.65;100.00;102028.52;1941203;74;33438;-75
2021/10/14 19:06:19;;;;;;;39.73;37.53;;;;;;;15.76;100.00;102039.08;1941189;74;31066;-76
2021/10/14 19:17:30;;;;;;;38.83;36.70;;;;;;;15.73;100.00;102032.10;1941156;74;31040;-74
2021/10/14 20:15:06;;;;;;;43.23;40.80;;;;;;;15.55;100.00;102037.54;1941344;74;33533;-74
2021/10/14 20:20:29;;;;;;;45.27;42.57;;;;;;;15.60;100.00;102038.91;1941407;74;33649;-75
2021/10/14 20:25:54;;;;;;;46.33;43.73;;;;;;;15.65;100.00;102036.08;1941176;74;33061;-73
2021/10/14 20:31:23;;;;;;;46.93;44.43;;;;;;;15.62;100.00;102026.27;1941450;74;31620;-72
2021/10/14 20:36:47;;;;;;;46.90;44.17;;;;;;;15.67;100.00;102021.20;1941283;74;33481;-70
2021/10/14 20:42:13;;;;;;;50.93;48.13;;;;;;;15.61;100.00;102026.03;1941161;74;33000;-75
2021/10/14 20:47:38;;;;;;;51.73;48.83;;;;;;;15.55;100.00;102019.33;1941151;74;31027;-75
2021/10/14 20:53:09;;;;;;;48.00;45.20;;;;;;;15.48;100.00;102028.88;1941012;74;31080;-77
2021/10/14 21:04:14;;;;;;;44.53;41.90;;;;;;;15.49;100.00;102011.48;1941330;74;33827;-73
2021/10/14 21:09:42;;;;;;;52.43;49.23;;;;;;;15.42;100.00;102017.42;1941346;74;33055;-76
2021/10/14 21:15:10;;;;;;;50.20;47.10;;;;;;;15.51;100.00;102014.04;1941311;74;33154;-73
2021/10/14 21:20:35;;;;;;;49.17;45.97;;;;;;;15.46;100.00;102017.67;1941188;74;33084;-74
2021/10/14 21:26:03;;;;;;;50.27;47.17;;;;;;;15.37;100.00;102006.81;1941410;74;33049;-73
2021/10/14 21:31:50;;;;;;;47.70;44.80;;;;;;;15.40;100.00;102005.66;1941217;74;33094;-73
2021/10/14 21:37:07;;;;;;;48.77;45.70;;;;;;;15.40;100.00;102001.46;1941156;74;33016;-70
2021/10/14 21:42:55;;;;;;;49.13;46.03;;;;;;;15.31;100.00;101995.39;2010171;71;33376;-73
2021/10/14 21:48:22;;;;;;;50.60;47.27;;;;;;;15.29;100.00;101989.22;1941360;74;33526;-70
2021/10/14 21:53:48;;;;;;;51.33;48.13;;;;;;;15.21;100.00;101989.84;1941116;74;33058;-70
2021/10/14 21:59:14;;;;;;;53.17;49.97;;;;;;;15.22;100.00;101981.16;1941307;74;33536;-75
2021/10/14 22:04:38;;;;;;;52.40;48.70;;;;;;;15.22;100.00;101976.13;1941143;74;31044;-71
2021/10/14 22:10:04;;;;;;;48.90;45.50;;;;;;;15.15;100.00;101968.58;1941093;74;33574;-73
2021/10/14 22:15:30;;;;;;;50.77;47.57;;;;;;;15.14;100.00;101966.38;1941105;74;33034;-71
2021/10/14 22:20:54;;;;;;;52.30;48.63;;;;;;;15.15;100.00;101960.19;1941177;74;31057;-74
2021/10/14 22:26:19;;;;;;;50.67;47.27;;;;;;;15.00;100.00;101966.72;1941032;74;33035;-74
2021/10/14 22:31:44;;;;;;;53.83;50.37;;;;;;;14.98;100.00;101956.37;1941120;74;33076;-73
2021/10/14 22:37:22;;;;;;;52.77;49.07;;;;;;;14.89;100.00;101959.52;1941441;74;33565;-74
2021/10/14 22:42:47;;;;;;;55.33;51.63;;;;;;;14.84;100.00;101955.34;1941156;74;33061;-73
2021/10/14 22:48:12;;;;;;;53.90;50.30;;;;;;;14.81;100.00;101947.50;1941304;74;33520;-73
2021/10/14 22:53:40;;;;;;;53.40;49.90;;;;;;;14.77;100.00;101956.19;1941230;74;32963;-71
2021/10/14 22:59:14;;;;;;;54.20;50.50;;;;;;;14.77;100.00;101959.83;1941244;74;33145;-72
2021/10/14 23:04:39;;;;;;;51.70;48.20;;;;;;;14.79;100.00;101952.00;1941152;74;33053;-72
2021/10/14 23:10:05;;;;;;;52.17;48.60;;;;;;;14.76;100.00;101955.94;1941128;74;33043;-71
2021/10/14 23:15:30;;;;;;;52.70;49.23;;;;;;;14.67;100.00;101950.66;1941338;74;33078;-72
2021/10/14 23:20:54;;;;;;;52.47;49.07;;;;;;;14.63;100.00;101949.56;1941066;74;33103;-72
2021/10/14 23:26:19;;;;;;;54.03;50.53;;;;;;;14.65;100.00;101950.94;1941291;74;33561;-72
2021/10/14 23:31:44;;;;;;;53.90;50.30;;;;;;;14.61;100.00;101941.44;1941472;74;33188;-71
2021/10/14 23:37:08;;;;;;;52.63;49.03;;;;;;;14.56;100.00;101937.27;1941325;74;33565;-72
2021/10/14 23:42:33;;;;;;;53.20;49.60;;;;;;;14.48;100.00;101933.11;1941036;74;33084;-71
2021/10/14 23:47:57;;;;;;;53.60;49.80;;;;;;;14.41;100.00;101924.20;1941092;74;32973;-70
2021/10/14 23:53:22;;;;;;;53.73;49.80;;;;;;;14.41;100.00;101925.59;1941123;74;32980;-70
2021/10/14 23:58:46;;;;;;;53.10;49.47;;;;;;;14.44;100.00;101936.20;1941315;74;33470;-72
